sensor_id;sensor_type;location;lat;lon;timestamp;P1;durP1;ratioP1;P2;durP2;ratioP2
58528;SDS011;44322;52.968;5.816;2023-08-08T00:00:09;3.95;;;2.28;;
58528;SDS011;44322;52.968;5.816;2023-08-08T00:02:35;4.53;;;2.38;;
58528;SDS011;44322;52.968;5.816;2023-08-08T00:05:01;5.88;;;2.65;;
58528;SDS011;44322;52.968;5.816;2023-08-08T00:07:26;3.10;;;2.47;;
58528;SDS011;44322;52.968;5.816;2023-08-08T00:09:55;7.07;;;2.92;;
58528;SDS011;44322;52.968;5.816;2023-08-08T00:12:21;4.13;;;2.70;;
58528;SDS011;44322;52.968;5.816;2023-08-08T00:14:47;5.57;;;2.65;;
58528;SDS011;44322;52.968;5.816;2023-08-08T00:17:13;3.80;;;2.65;;
58528;SDS011;44322;52.968;5.816;2023-08-08T00:19:38;5.20;;;2.45;;
58528;SDS011;44322;52.968;5.816;2023-08-08T00:22:04;10.77;;;2.67;;
58528;SDS011;44322;52.968;5.816;2023-08-08T00:24:29;5.90;;;2.53;;
58528;SDS011;44322;52.968;5.816;2023-08-08T00:26:55;4.78;;;2.63;;
58528;SDS011;44322;52.968;5.816;2023-08-08T00:29:20;7.97;;;3.08;;
58528;SDS011;44322;52.968;5.816;2023-08-08T00:31:46;5.50;;;3.35;;
58528;SDS011;44322;52.968;5.816;2023-08-08T00:34:12;6.30;;;2.88;;
58528;SDS011;44322;52.968;5.816;2023-08-08T00:36:37;4.47;;;2.85;;
58528;SDS011;44322;52.968;5.816;2023-08-08T00:39:03;6.28;;;3.13;;
58528;SDS011;44322;52.968;5.816;2023-08-08T00:41:28;3.10;;;2.67;;
58528;SDS011;44322;52.968;5.816;2023-08-08T00:43:54;5.05;;;3.20;;
58528;SDS011;44322;52.968;5.816;2023-08-08T00:46:20;4.28;;;2.80;;
58528;SDS011;44322;52.968;5.816;2023-08-08T00:48:47;7.27;;;2.97;;
58528;SDS011;44322;52.968;5.816;2023-08-08T00:51:13;6.72;;;2.60;;
58528;SDS011;44322;52.968;5.816;2023-08-08T00:53:39;4.95;;;2.90;;
58528;SDS011;44322;52.968;5.816;2023-08-08T00:56:04;5.70;;;2.75;;
58528;SDS011;44322;52.968;5.816;2023-08-08T00:58:30;6.72;;;2.53;;
58528;SDS011;44322;52.968;5.816;2023-08-08T01:00:56;4.97;;;3.22;;
58528;SDS011;44322;52.968;5.816;2023-08-08T01:03:25;4.88;;;2.97;;
58528;SDS011;44322;52.968;5.816;2023-08-08T01:05:53;5.97;;;2.50;;
58528;SDS011;44322;52.968;5.816;2023-08-08T01:08:26;6.47;;;2.83;;
58528;SDS011;44322;52.968;5.816;2023-08-08T01:10:57;5.10;;;2.17;;
58528;SDS011;44322;52.968;5.816;2023-08-08T01:13:23;5.05;;;2.50;;
58528;SDS011;44322;52.968;5.816;2023-08-08T01:15:50;4.93;;;2.17;;
58528;SDS011;44322;52.968;5.816;2023-08-08T01:18:15;4.68;;;2.25;;
58528;SDS011;44322;52.968;5.816;2023-08-08T01:20:42;7.53;;;2.42;;
58528;SDS011;44322;52.968;5.816;2023-08-08T01:23:19;7.20;;;2.33;;
58528;SDS011;44322;52.968;5.816;2023-08-08T01:25:44;6.38;;;2.72;;
58528;SDS011;44322;52.968;5.816;2023-08-08T01:28:11;3.00;;;2.08;;
58528;SDS011;44322;52.968;5.816;2023-08-08T01:30:37;5.18;;;2.28;;
58528;SDS011;44322;52.968;5.816;2023-08-08T01:33:03;7.65;;;2.00;;
58528;SDS011;44322;52.968;5.816;2023-08-08T01:35:30;6.43;;;1.83;;
58528;SDS011;44322;52.968;5.816;2023-08-08T01:40:24;6.72;;;2.00;;
58528;SDS011;44322;52.968;5.816;2023-08-08T01:42:51;6.53;;;1.90;;
58528;SDS011;44322;52.968;5.816;2023-08-08T01:45:17;5.82;;;2.20;;
58528;SDS011;44322;52.968;5.816;2023-08-08T01:47:43;6.22;;;2.15;;
58528;SDS011;44322;52.968;5.816;2023-08-08T01:50:14;7.65;;;2.30;;
58528;SDS011;44322;52.968;5.816;2023-08-08T01:52:40;6.18;;;1.90;;
58528;SDS011;44322;52.968;5.816;2023-08-08T01:55:06;6.13;;;2.08;;
58528;SDS011;44322;52.968;5.816;2023-08-08T01:57:31;8.05;;;1.92;;
58528;SDS011;44322;52.968;5.816;2023-08-08T01:59:58;7.10;;;2.50;;
58528;SDS011;44322;52.968;5.816;2023-08-08T02:02:23;4.15;;;1.70;;
58528;SDS011;44322;52.968;5.816;2023-08-08T02:04:49;4.53;;;2.00;;
58528;SDS011;44322;52.968;5.816;2023-08-08T02:07:14;5.75;;;2.00;;
58528;SDS011;44322;52.968;5.816;2023-08-08T02:09:40;7.15;;;1.88;;
58528;SDS011;44322;52.968;5.816;2023-08-08T02:12:06;4.93;;;1.77;;
58528;SDS011;44322;52.968;5.816;2023-08-08T02:14:32;7.80;;;2.00;;
58528;SDS011;44322;52.968;5.816;2023-08-08T02:16:58;5.15;;;2.30;;
58528;SDS011;44322;52.968;5.816;2023-08-08T02:19:23;5.90;;;1.95;;
58528;SDS011;44322;52.968;5.816;2023-08-08T02:21:49;6.55;;;2.20;;
58528;SDS011;44322;52.968;5.816;2023-08-08T02:26:42;8.02;;;1.77;;
58528;SDS011;44322;52.968;5.816;2023-08-08T02:29:08;5.32;;;2.03;;
58528;SDS011;44322;52.968;5.816;2023-08-08T02:31:35;4.65;;;1.70;;
58528;SDS011;44322;52.968;5.816;2023-08-08T02:34:00;5.78;;;1.83;;
58528;SDS011;44322;52.968;5.816;2023-08-08T02:36:26;4.78;;;1.88;;
58528;SDS011;44322;52.968;5.816;2023-08-08T02:38:51;7.85;;;1.80;;
58528;SDS011;44322;52.968;5.816;2023-08-08T02:41:19;4.60;;;1.67;;
58528;SDS011;44322;52.968;5.816;2023-08-08T02:43:45;4.22;;;1.45;;
58528;SDS011;44322;52.968;5.816;2023-08-08T02:46:11;9.02;;;2.00;;
58528;SDS011;44322;52.968;5.816;2023-08-08T02:48:37;4.32;;;1.70;;
58528;SDS011;44322;52.968;5.816;2023-08-08T02:51:02;6.50;;;1.92;;
58528;SDS011;44322;52.968;5.816;2023-08-08T02:53:28;6.55;;;1.70;;
58528;SDS011;44322;52.968;5.816;2023-08-08T02:55:54;4.25;;;1.50;;
58528;SDS011;44322;52.968;5.816;2023-08-08T02:58:20;5.68;;;1.50;;
58528;SDS011;44322;52.968;5.816;2023-08-08T03:00:45;7.50;;;1.70;;
58528;SDS011;44322;52.968;5.816;2023-08-08T03:03:13;9.98;;;1.70;;
58528;SDS011;44322;52.968;5.816;2023-08-08T03:05:40;6.17;;;1.70;;
58528;SDS011;44322;52.968;5.816;2023-08-08T03:08:06;3.90;;;1.67;;
58528;SDS011;44322;52.968;5.816;2023-08-08T03:10:32;5.13;;;1.50;;
58528;SDS011;44322;52.968;5.816;2023-08-08T03:12:58;4.50;;;1.23;;
58528;SDS011;44322;52.968;5.816;2023-08-08T03:15:23;6.65;;;1.67;;
58528;SDS011;44322;52.968;5.816;2023-08-08T03:17:49;3.38;;;1.60;;
58528;SDS011;44322;52.968;5.816;2023-08-08T03:20:15;4.93;;;1.60;;
58528;SDS011;44322;52.968;5.816;2023-08-08T03:22:41;6.38;;;1.85;;
58528;SDS011;44322;52.968;5.816;2023-08-08T03:25:07;5.80;;;1.60;;
58528;SDS011;44322;52.968;5.816;2023-08-08T03:27:33;8.15;;;1.40;;
58528;SDS011;44322;52.968;5.816;2023-08-08T03:29:59;5.18;;;1.10;;
58528;SDS011;44322;52.968;5.816;2023-08-08T03:32:26;7.90;;;1.67;;
58528;SDS011;44322;52.968;5.816;2023-08-08T03:34:53;6.07;;;1.83;;
58528;SDS011;44322;52.968;5.816;2023-08-08T03:37:18;4.65;;;1.60;;
58528;SDS011;44322;52.968;5.816;2023-08-08T03:39:46;6.90;;;1.70;;
58528;SDS011;44322;52.968;5.816;2023-08-08T03:42:11;5.82;;;1.65;;
58528;SDS011;44322;52.968;5.816;2023-08-08T03:44:37;4.43;;;1.60;;
58528;SDS011;44322;52.968;5.816;2023-08-08T03:47:03;9.45;;;1.90;;
58528;SDS011;44322;52.968;5.816;2023-08-08T03:49:28;5.57;;;1.80;;
58528;SDS011;44322;52.968;5.816;2023-08-08T03:51:54;4.32;;;1.52;;
58528;SDS011;44322;52.968;5.816;2023-08-08T03:54:20;6.68;;;1.60;;
58528;SDS011;44322;52.968;5.816;2023-08-08T03:56:45;6.93;;;1.50;;
58528;SDS011;44322;52.968;5.816;2023-08-08T03:59:11;5.32;;;1.65;;
58528;SDS011;44322;52.968;5.816;2023-08-08T04:01:37;5.10;;;1.50;;
58528;SDS011;44322;52.968;5.816;2023-08-08T04:04:03;5.75;;;1.70;;
58528;SDS011;44322;52.968;5.816;2023-08-08T04:06:29;8.80;;;1.70;;
58528;SDS011;44322;52.968;5.816;2023-08-08T04:08:55;5.88;;;1.63;;
58528;SDS011;44322;52.968;5.816;2023-08-08T04:11:21;4.70;;;1.60;;
58528;SDS011;44322;52.968;5.816;2023-08-08T04:13:46;5.35;;;1.63;;
58528;SDS011;44322;52.968;5.816;2023-08-08T04:16:12;6.78;;;1.85;;
58528;SDS011;44322;52.968;5.816;2023-08-08T04:18:37;3.78;;;1.40;;
58528;SDS011;44322;52.968;5.816;2023-08-08T04:21:03;6.38;;;1.42;;
58528;SDS011;44322;52.968;5.816;2023-08-08T04:23:29;3.80;;;1.33;;
58528;SDS011;44322;52.968;5.816;2023-08-08T04:25:55;6.18;;;1.35;;
58528;SDS011;44322;52.968;5.816;2023-08-08T04:28:20;6.05;;;1.48;;
58528;SDS011;44322;52.968;5.816;2023-08-08T04:30:46;7.50;;;1.80;;
58528;SDS011;44322;52.968;5.816;2023-08-08T04:33:11;5.80;;;2.20;;
58528;SDS011;44322;52.968;5.816;2023-08-08T04:35:37;3.78;;;1.40;;
58528;SDS011;44322;52.968;5.816;2023-08-08T04:38:03;4.07;;;1.55;;
58528;SDS011;44322;52.968;5.816;2023-08-08T04:40:29;4.00;;;1.48;;
58528;SDS011;44322;52.968;5.816;2023-08-08T04:42:54;3.40;;;1.00;;
58528;SDS011;44322;52.968;5.816;2023-08-08T04:45:20;4.43;;;1.30;;
58528;SDS011;44322;52.968;5.816;2023-08-08T04:47:46;4.30;;;1.58;;
58528;SDS011;44322;52.968;5.816;2023-08-08T04:50:12;3.45;;;1.88;;
58528;SDS011;44322;52.968;5.816;2023-08-08T04:52:38;4.78;;;1.63;;
58528;SDS011;44322;52.968;5.816;2023-08-08T04:55:03;4.32;;;1.92;;
58528;SDS011;44322;52.968;5.816;2023-08-08T04:57:30;4.55;;;1.77;;
58528;SDS011;44322;52.968;5.816;2023-08-08T04:59:56;6.00;;;1.50;;
58528;SDS011;44322;52.968;5.816;2023-08-08T05:02:21;5.70;;;1.52;;
58528;SDS011;44322;52.968;5.816;2023-08-08T05:04:47;4.22;;;1.58;;
58528;SDS011;44322;52.968;5.816;2023-08-08T05:07:13;4.80;;;1.77;;
58528;SDS011;44322;52.968;5.816;2023-08-08T05:09:38;10.02;;;1.80;;
58528;SDS011;44322;52.968;5.816;2023-08-08T05:12:04;6.55;;;1.80;;
58528;SDS011;44322;52.968;5.816;2023-08-08T05:14:30;5.07;;;1.60;;
58528;SDS011;44322;52.968;5.816;2023-08-08T05:16:55;9.68;;;1.42;;
58528;SDS011;44322;52.968;5.816;2023-08-08T05:19:21;5.55;;;1.27;;
58528;SDS011;44322;52.968;5.816;2023-08-08T05:21:47;4.63;;;1.70;;
58528;SDS011;44322;52.968;5.816;2023-08-08T05:24:12;5.18;;;1.30;;
58528;SDS011;44322;52.968;5.816;2023-08-08T05:26:38;8.23;;;1.70;;
58528;SDS011;44322;52.968;5.816;2023-08-08T05:29:03;4.15;;;1.77;;
58528;SDS011;44322;52.968;5.816;2023-08-08T05:31:29;6.63;;;1.50;;
58528;SDS011;44322;52.968;5.816;2023-08-08T05:33:55;8.85;;;1.85;;
58528;SDS011;44322;52.968;5.816;2023-08-08T05:36:20;6.95;;;1.80;;
58528;SDS011;44322;52.968;5.816;2023-08-08T05:38:46;7.97;;;2.05;;
58528;SDS011;44322;52.968;5.816;2023-08-08T05:41:11;6.78;;;1.77;;
58528;SDS011;44322;52.968;5.816;2023-08-08T05:43:37;6.95;;;1.50;;
58528;SDS011;44322;52.968;5.816;2023-08-08T05:46:02;8.02;;;1.70;;
58528;SDS011;44322;52.968;5.816;2023-08-08T05:48:28;7.80;;;1.80;;
58528;SDS011;44322;52.968;5.816;2023-08-08T05:50:53;6.75;;;1.40;;
58528;SDS011;44322;52.968;5.816;2023-08-08T05:53:19;8.98;;;2.00;;
58528;SDS011;44322;52.968;5.816;2023-08-08T05:55:45;4.93;;;1.30;;
58528;SDS011;44322;52.968;5.816;2023-08-08T05:58:10;7.95;;;1.45;;
58528;SDS011;44322;52.968;5.816;2023-08-08T06:00:36;5.43;;;1.35;;
58528;SDS011;44322;52.968;5.816;2023-08-08T06:03:02;3.85;;;1.10;;
58528;SDS011;44322;52.968;5.816;2023-08-08T06:05:27;6.13;;;1.55;;
58528;SDS011;44322;52.968;5.816;2023-08-08T06:07:53;7.75;;;1.38;;
58528;SDS011;44322;52.968;5.816;2023-08-08T06:10:20;5.60;;;1.30;;
58528;SDS011;44322;52.968;5.816;2023-08-08T06:12:47;6.60;;;1.50;;
58528;SDS011;44322;52.968;5.816;2023-08-08T06:15:12;7.82;;;1.60;;
58528;SDS011;44322;52.968;5.816;2023-08-08T06:17:38;10.25;;;1.95;;
58528;SDS011;44322;52.968;5.816;2023-08-08T06:20:04;7.30;;;1.23;;
58528;SDS011;44322;52.968;5.816;2023-08-08T06:22:32;7.47;;;1.13;;
58528;SDS011;44322;52.968;5.816;2023-08-08T06:24:57;4.00;;;1.17;;
58528;SDS011;44322;52.968;5.816;2023-08-08T06:27:23;6.53;;;1.30;;
58528;SDS011;44322;52.968;5.816;2023-08-08T06:29:49;7.25;;;1.75;;
58528;SDS011;44322;52.968;5.816;2023-08-08T06:32:14;7.32;;;1.38;;
58528;SDS011;44322;52.968;5.816;2023-08-08T06:34:40;5.55;;;1.20;;
58528;SDS011;44322;52.968;5.816;2023-08-08T06:37:05;9.05;;;1.25;;
58528;SDS011;44322;52.968;5.816;2023-08-08T06:39:31;6.63;;;1.60;;
58528;SDS011;44322;52.968;5.816;2023-08-08T06:41:57;6.28;;;1.42;;
58528;SDS011;44322;52.968;5.816;2023-08-08T06:44:32;9.02;;;1.40;;
58528;SDS011;44322;52.968;5.816;2023-08-08T06:46:58;3.42;;;0.98;;
58528;SDS011;44322;52.968;5.816;2023-08-08T06:49:24;7.43;;;1.30;;
58528;SDS011;44322;52.968;5.816;2023-08-08T06:51:50;5.75;;;1.33;;
58528;SDS011;44322;52.968;5.816;2023-08-08T06:54:15;6.00;;;1.60;;
58528;SDS011;44322;52.968;5.816;2023-08-08T06:56:41;4.50;;;1.10;;
58528;SDS011;44322;52.968;5.816;2023-08-08T06:59:06;3.95;;;1.15;;
58528;SDS011;44322;52.968;5.816;2023-08-08T07:01:32;3.72;;;1.10;;
58528;SDS011;44322;52.968;5.816;2023-08-08T07:03:59;3.25;;;1.10;;
58528;SDS011;44322;52.968;5.816;2023-08-08T07:06:25;6.70;;;1.30;;
58528;SDS011;44322;52.968;5.816;2023-08-08T07:08:50;4.13;;;1.30;;
58528;SDS011;44322;52.968;5.816;2023-08-08T07:11:16;6.65;;;1.85;;
58528;SDS011;44322;52.968;5.816;2023-08-08T07:13:41;7.07;;;1.65;;
58528;SDS011;44322;52.968;5.816;2023-08-08T07:16:07;4.97;;;1.20;;
58528;SDS011;44322;52.968;5.816;2023-08-08T07:18:32;4.57;;;1.20;;
58528;SDS011;44322;52.968;5.816;2023-08-08T07:20:58;7.93;;;1.25;;
58528;SDS011;44322;52.968;5.816;2023-08-08T07:23:24;5.72;;;1.20;;
58528;SDS011;44322;52.968;5.816;2023-08-08T07:25:49;6.03;;;1.23;;
58528;SDS011;44322;52.968;5.816;2023-08-08T07:28:15;6.55;;;1.13;;
58528;SDS011;44322;52.968;5.816;2023-08-08T07:30:40;4.45;;;1.27;;
58528;SDS011;44322;52.968;5.816;2023-08-08T07:33:06;6.50;;;1.45;;
58528;SDS011;44322;52.968;5.816;2023-08-08T07:35:35;7.60;;;1.65;;
58528;SDS011;44322;52.968;5.816;2023-08-08T07:38:01;6.28;;;1.13;;
58528;SDS011;44322;52.968;5.816;2023-08-08T07:40:26;7.75;;;1.45;;
58528;SDS011;44322;52.968;5.816;2023-08-08T07:42:52;3.50;;;1.20;;
58528;SDS011;44322;52.968;5.816;2023-08-08T07:45:18;4.53;;;1.17;;
58528;SDS011;44322;52.968;5.816;2023-08-08T07:47:43;3.40;;;1.17;;
58528;SDS011;44322;52.968;5.816;2023-08-08T07:50:09;6.43;;;1.20;;
58528;SDS011;44322;52.968;5.816;2023-08-08T07:52:35;6.05;;;1.63;;
58528;SDS011;44322;52.968;5.816;2023-08-08T07:55:01;4.65;;;1.17;;
58528;SDS011;44322;52.968;5.816;2023-08-08T07:57:28;5.47;;;1.40;;
58528;SDS011;44322;52.968;5.816;2023-08-08T07:59:55;5.53;;;1.23;;
58528;SDS011;44322;52.968;5.816;2023-08-08T08:02:21;3.90;;;1.30;;
58528;SDS011;44322;52.968;5.816;2023-08-08T08:04:46;6.15;;;1.33;;
58528;SDS011;44322;52.968;5.816;2023-08-08T08:07:12;4.43;;;1.33;;
58528;SDS011;44322;52.968;5.816;2023-08-08T08:09:38;2.72;;;1.27;;
58528;SDS011;44322;52.968;5.816;2023-08-08T08:12:04;5.20;;;1.40;;
58528;SDS011;44322;52.968;5.816;2023-08-08T08:14:30;4.72;;;1.58;;
58528;SDS011;44322;52.968;5.816;2023-08-08T08:16:55;4.30;;;1.60;;
58528;SDS011;44322;52.968;5.816;2023-08-08T08:19:21;7.43;;;1.30;;
58528;SDS011;44322;52.968;5.816;2023-08-08T08:21:47;5.15;;;1.45;;
58528;SDS011;44322;52.968;5.816;2023-08-08T08:24:13;7.28;;;1.58;;
58528;SDS011;44322;52.968;5.816;2023-08-08T08:26:39;7.65;;;1.50;;
58528;SDS011;44322;52.968;5.816;2023-08-08T08:29:04;5.13;;;1.60;;
58528;SDS011;44322;52.968;5.816;2023-08-08T08:31:30;3.40;;;1.33;;
58528;SDS011;44322;52.968;5.816;2023-08-08T08:33:56;5.70;;;1.23;;
58528;SDS011;44322;52.968;5.816;2023-08-08T08:36:21;6.53;;;1.50;;
58528;SDS011;44322;52.968;5.816;2023-08-08T08:38:47;4.72;;;1.30;;
58528;SDS011;44322;52.968;5.816;2023-08-08T08:41:14;4.88;;;1.33;;
58528;SDS011;44322;52.968;5.816;2023-08-08T08:43:43;3.63;;;1.65;;
58528;SDS011;44322;52.968;5.816;2023-08-08T08:46:08;7.20;;;1.65;;
58528;SDS011;44322;52.968;5.816;2023-08-08T08:51:02;3.20;;;1.20;;
58528;SDS011;44322;52.968;5.816;2023-08-08T08:53:28;5.22;;;1.23;;
58528;SDS011;44322;52.968;5.816;2023-08-08T08:55:54;3.33;;;1.10;;
58528;SDS011;44322;52.968;5.816;2023-08-08T08:58:22;7.05;;;1.50;;
58528;SDS011;44322;52.968;5.816;2023-08-08T09:00:49;5.70;;;1.20;;
58528;SDS011;44322;52.968;5.816;2023-08-08T09:03:16;4.05;;;1.10;;
58528;SDS011;44322;52.968;5.816;2023-08-08T09:05:42;5.38;;;1.15;;
58528;SDS011;44322;52.968;5.816;2023-08-08T09:08:08;3.78;;;1.55;;
58528;SDS011;44322;52.968;5.816;2023-08-08T09:10:34;5.97;;;1.45;;
58528;SDS011;44322;52.968;5.816;2023-08-08T09:13:00;7.22;;;1.40;;
58528;SDS011;44322;52.968;5.816;2023-08-08T09:15:29;8.65;;;1.35;;
58528;SDS011;44322;52.968;5.816;2023-08-08T09:17:58;4.30;;;1.20;;
58528;SDS011;44322;52.968;5.816;2023-08-08T09:20:25;4.90;;;1.42;;
58528;SDS011;44322;52.968;5.816;2023-08-08T09:22:53;5.50;;;1.50;;
58528;SDS011;44322;52.968;5.816;2023-08-08T09:25:18;6.45;;;1.42;;
58528;SDS011;44322;52.968;5.816;2023-08-08T09:27:44;5.13;;;1.55;;
58528;SDS011;44322;52.968;5.816;2023-08-08T09:30:10;7.90;;;1.85;;
58528;SDS011;44322;52.968;5.816;2023-08-08T09:32:37;7.13;;;1.67;;
58528;SDS011;44322;52.968;5.816;2023-08-08T09:35:03;5.25;;;1.50;;
58528;SDS011;44322;52.968;5.816;2023-08-08T09:37:28;4.53;;;1.23;;
58528;SDS011;44322;52.968;5.816;2023-08-08T09:40:01;4.65;;;1.40;;
58528;SDS011;44322;52.968;5.816;2023-08-08T09:42:30;9.63;;;1.90;;
58528;SDS011;44322;52.968;5.816;2023-08-08T09:44:56;4.45;;;1.20;;
58528;SDS011;44322;52.968;5.816;2023-08-08T09:47:22;6.57;;;1.58;;
58528;SDS011;44322;52.968;5.816;2023-08-08T09:49:48;3.60;;;1.48;;
58528;SDS011;44322;52.968;5.816;2023-08-08T09:52:14;3.10;;;1.20;;
58528;SDS011;44322;52.968;5.816;2023-08-08T09:54:40;5.35;;;1.40;;
58528;SDS011;44322;52.968;5.816;2023-08-08T09:57:07;5.50;;;1.35;;
58528;SDS011;44322;52.968;5.816;2023-08-08T09:59:33;3.63;;;1.50;;
58528;SDS011;44322;52.968;5.816;2023-08-08T10:01:59;4.53;;;1.08;;
58528;SDS011;44322;52.968;5.816;2023-08-08T10:04:25;4.78;;;1.50;;
58528;SDS011;44322;52.968;5.816;2023-08-08T10:06:51;5.57;;;1.20;;
58528;SDS011;44322;52.968;5.816;2023-08-08T10:09:17;5.00;;;1.73;;
58528;SDS011;44322;52.968;5.816;2023-08-08T10:11:43;6.53;;;1.60;;
58528;SDS011;44322;52.968;5.816;2023-08-08T10:14:09;4.78;;;1.52;;
58528;SDS011;44322;52.968;5.816;2023-08-08T10:16:43;4.30;;;1.83;;
58528;SDS011;44322;52.968;5.816;2023-08-08T10:19:09;6.80;;;1.75;;
58528;SDS011;44322;52.968;5.816;2023-08-08T10:21:40;4.47;;;1.58;;
58528;SDS011;44322;52.968;5.816;2023-08-08T10:24:10;5.07;;;1.35;;
58528;SDS011;44322;52.968;5.816;2023-08-08T10:26:52;5.10;;;1.65;;
58528;SDS011;44322;52.968;5.816;2023-08-08T10:29:19;2.97;;;1.20;;
58528;SDS011;44322;52.968;5.816;2023-08-08T10:31:52;4.07;;;1.30;;
58528;SDS011;44322;52.968;5.816;2023-08-08T10:34:26;5.28;;;1.35;;
58528;SDS011;44322;52.968;5.816;2023-08-08T10:37:05;5.60;;;1.60;;
58528;SDS011;44322;52.968;5.816;2023-08-08T10:39:34;4.40;;;1.70;;
58528;SDS011;44322;52.968;5.816;2023-08-08T10:42:00;4.47;;;1.48;;
58528;SDS011;44322;52.968;5.816;2023-08-08T10:44:28;6.45;;;1.40;;
58528;SDS011;44322;52.968;5.816;2023-08-08T10:46:54;5.78;;;1.65;;
58528;SDS011;44322;52.968;5.816;2023-08-08T10:49:20;5.55;;;1.40;;
58528;SDS011;44322;52.968;5.816;2023-08-08T10:51:47;4.53;;;1.40;;
58528;SDS011;44322;52.968;5.816;2023-08-08T10:54:22;6.70;;;1.80;;
58528;SDS011;44322;52.968;5.816;2023-08-08T10:56:56;4.43;;;1.10;;
58528;SDS011;44322;52.968;5.816;2023-08-08T10:59:24;4.53;;;1.20;;
58528;SDS011;44322;52.968;5.816;2023-08-08T11:01:51;4.70;;;1.40;;
58528;SDS011;44322;52.968;5.816;2023-08-08T11:04:19;4.32;;;1.27;;
58528;SDS011;44322;52.968;5.816;2023-08-08T11:06:46;3.90;;;1.20;;
58528;SDS011;44322;52.968;5.816;2023-08-08T11:09:13;6.88;;;1.15;;
58528;SDS011;44322;52.968;5.816;2023-08-08T11:11:43;3.85;;;1.10;;
58528;SDS011;44322;52.968;5.816;2023-08-08T11:14:14;5.07;;;1.95;;
58528;SDS011;44322;52.968;5.816;2023-08-08T11:16:43;6.47;;;1.88;;
58528;SDS011;44322;52.968;5.816;2023-08-08T11:19:10;4.50;;;1.38;;
58528;SDS011;44322;52.968;5.816;2023-08-08T11:21:37;5.93;;;1.50;;
58528;SDS011;44322;52.968;5.816;2023-08-08T11:24:04;4.47;;;1.58;;
58528;SDS011;44322;52.968;5.816;2023-08-08T11:26:31;8.90;;;1.65;;
58528;SDS011;44322;52.968;5.816;2023-08-08T11:29:03;4.78;;;1.40;;
58528;SDS011;44322;52.968;5.816;2023-08-08T11:31:31;6.43;;;1.45;;
58528;SDS011;44322;52.968;5.816;2023-08-08T11:34:03;5.00;;;1.20;;
58528;SDS011;44322;52.968;5.816;2023-08-08T11:36:33;5.35;;;1.17;;
58528;SDS011;44322;52.968;5.816;2023-08-08T11:39:01;3.53;;;1.15;;
58528;SDS011;44322;52.968;5.816;2023-08-08T11:41:32;6.20;;;1.42;;
58528;SDS011;44322;52.968;5.816;2023-08-08T11:44:02;4.20;;;1.35;;
58528;SDS011;44322;52.968;5.816;2023-08-08T11:46:30;2.88;;;1.15;;
58528;SDS011;44322;52.968;5.816;2023-08-08T11:49:06;4.20;;;1.45;;
58528;SDS011;44322;52.968;5.816;2023-08-08T11:51:34;4.03;;;1.17;;
58528;SDS011;44322;52.968;5.816;2023-08-08T11:54:01;6.47;;;1.67;;
58528;SDS011;44322;52.968;5.816;2023-08-08T11:58:54;4.60;;;1.45;;
58528;SDS011;44322;52.968;5.816;2023-08-08T12:01:22;6.85;;;1.55;;
58528;SDS011;44322;52.968;5.816;2023-08-08T12:03:48;5.93;;;1.35;;
58528;SDS011;44322;52.968;5.816;2023-08-08T12:06:16;5.80;;;1.67;;
58528;SDS011;44322;52.968;5.816;2023-08-08T12:08:43;6.38;;;1.52;;
58528;SDS011;44322;52.968;5.816;2023-08-08T12:11:13;5.20;;;1.48;;
58528;SDS011;44322;52.968;5.816;2023-08-08T12:13:43;6.75;;;1.65;;
58528;SDS011;44322;52.968;5.816;2023-08-08T12:16:09;5.22;;;1.88;;
58528;SDS011;44322;52.968;5.816;2023-08-08T12:18:36;5.43;;;1.17;;
58528;SDS011;44322;52.968;5.816;2023-08-08T12:21:09;4.45;;;1.20;;
58528;SDS011;44322;52.968;5.816;2023-08-08T12:23:35;5.47;;;1.30;;
58528;SDS011;44322;52.968;5.816;2023-08-08T12:26:04;6.25;;;1.70;;
58528;SDS011;44322;52.968;5.816;2023-08-08T12:28:31;3.67;;;1.20;;
58528;SDS011;44322;52.968;5.816;2023-08-08T12:30:57;7.35;;;1.35;;
58528;SDS011;44322;52.968;5.816;2023-08-08T12:33:22;4.38;;;1.23;;
58528;SDS011;44322;52.968;5.816;2023-08-08T12:35:48;3.63;;;1.05;;
58528;SDS011;44322;52.968;5.816;2023-08-08T12:38:14;3.03;;;1.02;;
58528;SDS011;44322;52.968;5.816;2023-08-08T12:40:40;4.32;;;1.50;;
58528;SDS011;44322;52.968;5.816;2023-08-08T12:43:06;5.95;;;1.40;;
58528;SDS011;44322;52.968;5.816;2023-08-08T12:45:31;3.13;;;1.20;;
58528;SDS011;44322;52.968;5.816;2023-08-08T12:47:57;3.17;;;1.10;;
58528;SDS011;44322;52.968;5.816;2023-08-08T12:50:22;5.28;;;1.02;;
58528;SDS011;44322;52.968;5.816;2023-08-08T12:52:48;4.82;;;0.95;;
58528;SDS011;44322;52.968;5.816;2023-08-08T12:55:14;2.92;;;1.00;;
58528;SDS011;44322;52.968;5.816;2023-08-08T12:57:42;3.58;;;1.40;;
58528;SDS011;44322;52.968;5.816;2023-08-08T13:00:08;4.13;;;1.08;;
58528;SDS011;44322;52.968;5.816;2023-08-08T13:02:35;5.03;;;1.07;;
58528;SDS011;44322;52.968;5.816;2023-08-08T13:05:02;7.70;;;1.33;;
58528;SDS011;44322;52.968;5.816;2023-08-08T13:07:29;3.42;;;1.10;;
58528;SDS011;44322;52.968;5.816;2023-08-08T13:09:54;4.72;;;1.25;;
58528;SDS011;44322;52.968;5.816;2023-08-08T13:12:20;4.20;;;1.40;;
58528;SDS011;44322;52.968;5.816;2023-08-08T13:14:46;5.55;;;1.10;;
58528;SDS011;44322;52.968;5.816;2023-08-08T13:17:12;4.80;;;2.03;;
58528;SDS011;44322;52.968;5.816;2023-08-08T13:19:38;3.60;;;1.08;;
58528;SDS011;44322;52.968;5.816;2023-08-08T13:22:03;4.05;;;1.30;;
58528;SDS011;44322;52.968;5.816;2023-08-08T13:24:29;4.32;;;1.25;;
58528;SDS011;44322;52.968;5.816;2023-08-08T13:26:55;5.90;;;1.23;;
58528;SDS011;44322;52.968;5.816;2023-08-08T13:29:20;5.20;;;1.05;;
58528;SDS011;44322;52.968;5.816;2023-08-08T13:31:46;5.00;;;1.48;;
58528;SDS011;44322;52.968;5.816;2023-08-08T13:34:11;5.70;;;1.80;;
58528;SDS011;44322;52.968;5.816;2023-08-08T13:36:37;6.32;;;1.40;;
58528;SDS011;44322;52.968;5.816;2023-08-08T13:39:03;4.35;;;1.30;;
58528;SDS011;44322;52.968;5.816;2023-08-08T13:41:32;6.05;;;1.33;;
58528;SDS011;44322;52.968;5.816;2023-08-08T13:43:58;5.68;;;1.20;;
58528;SDS011;44322;52.968;5.816;2023-08-08T13:46:23;5.97;;;1.67;;
58528;SDS011;44322;52.968;5.816;2023-08-08T13:48:49;7.05;;;1.48;;
58528;SDS011;44322;52.968;5.816;2023-08-08T13:51:15;6.70;;;1.40;;
58528;SDS011;44322;52.968;5.816;2023-08-08T13:53:40;5.05;;;1.10;;
58528;SDS011;44322;52.968;5.816;2023-08-08T13:56:06;2.58;;;1.08;;
58528;SDS011;44322;52.968;5.816;2023-08-08T13:58:32;8.63;;;1.45;;
58528;SDS011;44322;52.968;5.816;2023-08-08T14:00:57;4.30;;;1.30;;
58528;SDS011;44322;52.968;5.816;2023-08-08T14:03:23;4.25;;;1.25;;
58528;SDS011;44322;52.968;5.816;2023-08-08T14:05:49;4.82;;;1.15;;
58528;SDS011;44322;52.968;5.816;2023-08-08T14:08:17;2.45;;;1.25;;
58528;SDS011;44322;52.968;5.816;2023-08-08T14:10:43;5.75;;;1.20;;
58528;SDS011;44322;52.968;5.816;2023-08-08T14:13:09;3.95;;;1.10;;
58528;SDS011;44322;52.968;5.816;2023-08-08T14:15:36;3.28;;;1.27;;
58528;SDS011;44322;52.968;5.816;2023-08-08T14:18:06;5.85;;;1.50;;
58528;SDS011;44322;52.968;5.816;2023-08-08T14:20:32;5.95;;;1.42;;
58528;SDS011;44322;52.968;5.816;2023-08-08T14:22:57;4.75;;;1.30;;
58528;SDS011;44322;52.968;5.816;2023-08-08T14:25:23;4.90;;;1.25;;
58528;SDS011;44322;52.968;5.816;2023-08-08T14:27:48;4.82;;;1.20;;
58528;SDS011;44322;52.968;5.816;2023-08-08T14:30:14;6.15;;;1.48;;
58528;SDS011;44322;52.968;5.816;2023-08-08T14:32:40;5.57;;;1.48;;
58528;SDS011;44322;52.968;5.816;2023-08-08T14:35:05;4.50;;;1.90;;
58528;SDS011;44322;52.968;5.816;2023-08-08T14:37:34;5.43;;;1.52;;
58528;SDS011;44322;52.968;5.816;2023-08-08T14:40:00;6.13;;;1.35;;
58528;SDS011;44322;52.968;5.816;2023-08-08T14:42:26;4.30;;;1.33;;
58528;SDS011;44322;52.968;5.816;2023-08-08T14:44:52;3.40;;;1.10;;
58528;SDS011;44322;52.968;5.816;2023-08-08T14:47:17;3.65;;;1.00;;
58528;SDS011;44322;52.968;5.816;2023-08-08T14:49:43;4.55;;;1.10;;
58528;SDS011;44322;52.968;5.816;2023-08-08T14:52:08;4.93;;;1.05;;